createdAt,value
2019-02-25T00:17:09.223Z,2.90
2019-02-25T00:47:15.842Z,2.40
2019-02-25T01:17:20.669Z,2.00
2019-02-25T01:47:25.900Z,2.20
2019-02-25T02:17:30.745Z,2.20
2019-02-25T02:47:39.007Z,1.80
2019-02-25T03:17:43.940Z,1.50
2019-02-25T03:47:49.024Z,1.30
2019-02-25T04:17:53.941Z,1.40
2019-02-25T04:47:58.961Z,1.20
2019-02-25T05:18:03.860Z,0.70
2019-02-25T05:48:08.714Z,0.90
2019-02-25T06:18:13.572Z,1.90
2019-02-25T06:48:18.482Z,2.20
2019-02-25T07:18:33.918Z,2.70
2019-02-25T07:48:49.471Z,3.10
2019-02-25T08:19:12.177Z,3.60
2019-02-25T08:49:24.792Z,4.10
2019-02-25T09:19:29.539Z,4.20
2019-02-25T09:49:34.873Z,4.50
2019-02-25T10:19:39.883Z,4.80
2019-02-25T10:49:44.842Z,5.40
2019-02-25T11:19:49.696Z,5.40
2019-02-25T11:49:54.737Z,6.20
2019-02-25T12:19:59.574Z,7.50
2019-02-25T12:50:08.177Z,8.40
2019-02-25T13:20:16.342Z,9.40
2019-02-25T13:50:21.321Z,9.30
2019-02-25T14:20:26.744Z,9.30
2019-02-25T14:50:32.021Z,8.60
2019-02-25T15:20:36.934Z,8.20
2019-02-25T15:50:44.119Z,8.00
2019-02-25T16:20:48.603Z,7.70
2019-02-25T16:50:53.583Z,7.00
2019-02-25T17:20:58.492Z,6.80
2019-02-25T17:51:03.978Z,6.20
2019-02-25T18:21:10.473Z,5.80
2019-02-25T18:51:15.885Z,5.60
2019-02-25T19:21:20.717Z,5.20
2019-02-25T19:51:27.456Z,4.60
2019-02-25T20:21:32.441Z,4.10
2019-02-25T20:51:37.402Z,4.00
2019-02-25T21:21:42.334Z,3.90
2019-02-25T21:51:48.132Z,3.60
2019-02-25T22:21:55.583Z,3.20
2019-02-25T22:52:01.140Z,3.00
2019-02-25T23:22:06.700Z,2.80
2019-02-25T23:52:11.690Z,3.00
